Time;durP1;ratioP1;P1;durP2;ratioP2;P2;SDS_P1;SDS_P2;PMS_P1;PMS_P2;Temp;Humidity;BMP_temperature;BMP_pressure;BME280_temperature;BME280_humidity;BME280_pressure;Samples;Min_cycle;Max_cycle;Signal;HPM_P1;HPM_P2
2022/03/15 00:00:24;;;;;;;;;25.00;23.33;;;;;21.72;35.92;102092.11;110290;1264;20048;-49
2022/03/15 00:03:07;;;;;;;;;25.00;24.00;;;;;21.72;35.82;102087.98;110302;1264;19025;-49
2022/03/15 00:05:34;;;;;;;;;23.33;21.00;;;;;21.71;35.79;102083.30;110267;1264;19598;-48
2022/03/15 00:08:02;;;;;;;;;28.33;27.00;;;;;21.71;35.69;102084.21;110253;1264;22801;-50
2022/03/15 00:10:29;;;;;;;;;28.33;24.33;;;;;21.72;35.76;102085.23;110171;1264;18872;-48
2022/03/15 00:12:56;;;;;;;;;23.00;21.33;;;;;21.71;35.70;102080.02;110235;1264;21094;-49
2022/03/15 00:15:24;;;;;;;;;25.33;22.67;;;;;21.71;36.08;102077.42;111118;1264;18772;-49
2022/03/15 00:17:51;;;;;;;;;30.00;24.00;;;;;21.71;35.85;102076.55;110280;1264;21817;-49
2022/03/15 00:20:21;;;;;;;;;24.67;22.00;;;;;21.72;35.74;102072.64;110254;1264;19398;-49
2022/03/15 00:22:48;;;;;;;;;25.00;25.00;;;;;21.72;35.60;102064.27;110269;1264;19047;-49
2022/03/15 00:25:17;;;;;;;;;27.33;22.33;;;;;21.72;35.77;102066.48;110285;1264;18967;-49
2022/03/15 00:27:44;;;;;;;;;25.00;24.00;;;;;21.73;35.75;102076.80;110270;1264;19744;-51
2022/03/15 00:30:11;;;;;;;;;29.50;25.00;;;;;21.71;35.91;102081.10;110277;1264;21793;-48
2022/03/15 00:32:38;;;;;;;;;22.00;20.50;;;;;21.73;35.79;102088.60;110277;1264;22293;-48
2022/03/15 00:35:11;;;;;;;;;27.67;22.00;;;;;21.73;35.65;102085.64;110272;1264;19669;-49
2022/03/15 00:37:38;;;;;;;;;25.00;22.00;;;;;21.73;35.59;102088.42;110246;1264;19175;-49
2022/03/15 00:40:06;;;;;;;;;23.33;20.67;;;;;21.73;35.79;102091.30;110222;1263;18838;-52
2022/03/15 00:42:33;;;;;;;;;30.50;27.00;;;;;21.74;35.88;102085.95;110294;1264;19516;-48
2022/03/15 00:45:03;;;;;;;;;23.33;21.67;;;;;21.73;35.73;102085.90;110218;1264;22701;-48
2022/03/15 00:47:30;;;;;;;;;24.00;22.00;;;;;21.72;35.78;102081.95;110244;1263;19447;-48
2022/03/15 00:49:57;;;;;;;;;25.00;23.33;;;;;21.72;35.64;102081.45;110158;1265;19541;-48
2022/03/15 00:52:25;;;;;;;;;24.33;20.33;;;;;21.71;35.62;102078.80;110309;1264;18789;-48
2022/03/15 00:54:52;;;;;;;;;28.00;24.33;;;;;21.71;35.67;102082.07;110262;1264;19048;-47
2022/03/15 00:57:19;;;;;;;;;26.67;23.67;;;;;21.72;35.75;102081.77;110314;1264;19485;-49
2022/03/15 00:59:46;;;;;;;;;28.67;23.00;;;;;21.71;35.56;102081.35;110260;1265;18692;-49
2022/03/15 01:02:14;;;;;;;;;23.00;21.50;;;;;21.71;35.71;102081.86;110260;1264;18904;-49
2022/03/15 01:04:41;;;;;;;;;30.00;25.33;;;;;21.71;35.61;102081.45;110211;1264;19583;-51
2022/03/15 01:07:08;;;;;;;;;24.67;21.67;;;;;21.70;35.73;102087.92;110267;1264;18756;-51
2022/03/15 01:09:35;;;;;;;;;24.67;22.00;;;;;21.70;35.69;102093.98;110185;1264;18825;-49
2022/03/15 01:12:03;;;;;;;;;25.33;22.67;;;;;21.69;35.71;102096.45;110302;1264;19650;-48
2022/03/15 01:14:30;;;;;;;;;36.33;27.00;;;;;21.69;35.46;102100.21;110225;1264;18761;-48
2022/03/15 01:16:57;;;;;;;;;27.50;25.50;;;;;21.68;35.72;102093.20;110263;1264;22794;-49
2022/03/15 01:19:25;;;;;;;;;24.33;23.33;;;;;21.69;35.72;102088.61;110055;1264;266105;-49
2022/03/15 01:21:52;;;;;;;;;26.33;21.67;;;;;21.69;35.40;102093.02;110244;1264;18689;-48
2022/03/15 01:24:19;;;;;;;;;24.00;24.00;;;;;21.69;35.51;102095.73;110298;1264;19596;-49
2022/03/15 01:26:47;;;;;;;;;26.67;24.00;;;;;21.69;35.72;102092.64;110252;1265;22322;-48
2022/03/15 01:29:14;;;;;;;;;25.67;24.33;;;;;21.70;35.55;102089.98;110230;1264;18876;-48
2022/03/15 01:31:41;;;;;;;;;25.00;23.33;;;;;21.67;35.45;102089.48;110233;1264;22422;-48
2022/03/15 01:34:08;;;;;;;;;27.00;24.33;;;;;21.68;35.40;102086.89;110263;1264;19659;-49
2022/03/15 01:36:35;;;;;;;;;24.67;23.33;;;;;21.68;35.50;102081.06;110253;1265;19036;-49
2022/03/15 01:39:03;;;;;;;;;28.67;25.00;;;;;21.68;35.42;102074.68;110308;1264;18891;-49
2022/03/15 01:41:31;;;;;;;;;25.00;25.00;;;;;21.68;35.57;102073.79;110275;1265;19690;-48
2022/03/15 01:43:58;;;;;;;;;28.50;24.00;;;;;21.69;35.38;102072.79;110281;1264;18788;-48
2022/03/15 01:46:25;;;;;;;;;25.00;21.33;;;;;21.69;35.56;102073.52;110169;1265;19099;-47
2022/03/15 01:48:52;;;;;;;;;22.33;21.00;;;;;21.69;35.56;102074.39;110185;1264;19461;-47
2022/03/15 01:51:21;;;;;;;;;25.33;24.00;;;;;21.69;35.25;102082.29;110192;1265;22233;-51
2022/03/15 01:53:48;;;;;;;;;26.33;25.00;;;;;21.69;35.52;102087.32;110233;1265;18966;-52
2022/03/15 01:56:15;;;;;;;;;26.33;24.00;;;;;21.70;35.48;102087.64;110240;1265;19756;-50
2022/03/15 01:58:43;;;;;;;;;31.67;26.00;;;;;21.69;35.65;102089.02;110265;1263;18722;-49
2022/03/15 02:01:10;;;;;;;;;29.67;27.00;;;;;21.69;35.40;102085.31;110274;1264;18754;-49
2022/03/15 02:03:37;;;;;;;;;26.33;25.67;;;;;21.69;35.56;102082.46;110241;1265;19780;-49
2022/03/15 02:06:05;;;;;;;;;26.00;25.67;;;;;21.68;35.57;102081.60;110307;1264;18775;-48
2022/03/15 02:08:33;;;;;;;;;24.00;22.33;;;;;21.68;35.44;102082.13;110248;1264;19060;-50
2022/03/15 02:11:00;;;;;;;;;31.00;24.50;;;;;21.68;35.54;102079.66;110184;1264;19679;-49
2022/03/15 02:13:29;;;;;;;;;28.00;24.67;;;;;21.67;35.50;102081.87;110216;1265;18741;-49
2022/03/15 02:15:56;;;;;;;;;25.67;24.67;;;;;21.68;35.38;102079.25;110134;1264;19287;-49
2022/03/15 02:18:26;;;;;;;;;26.00;24.67;;;;;21.68;35.37;102075.29;110299;1263;20100;-49
2022/03/15 02:20:53;;;;;;;;;27.50;25.00;;;;;21.68;35.53;102070.20;110265;1264;19048;-47
2022/03/15 02:23:21;;;;;;;;;27.67;25.00;;;;;21.66;35.48;102067.95;110235;1264;18849;-48
2022/03/15 02:25:48;;;;;;;;;28.00;22.33;;;;;21.66;35.30;102062.15;110267;1264;19545;-50
2022/03/15 02:28:15;;;;;;;;;29.33;25.33;;;;;21.66;35.38;102063.27;110286;1264;20361;-48
2022/03/15 02:30:42;;;;;;;;;27.33;25.00;;;;;21.67;35.44;102066.66;110241;1264;19105;-49
2022/03/15 02:33:10;;;;;;;;;24.00;22.00;;;;;21.67;35.43;102068.05;110219;1264;19489;-50
2022/03/15 02:35:37;;;;;;;;;25.00;23.00;;;;;21.66;35.50;102069.98;110246;1264;22268;-48
2022/03/15 02:38:04;;;;;;;;;25.00;22.00;;;;;21.66;35.48;102073.44;110292;1264;21074;-45
2022/03/15 02:40:31;;;;;;;;;26.50;25.00;;;;;21.66;35.48;102071.83;110212;1264;20946;-48
2022/03/15 02:42:58;;;;;;;;;29.33;25.00;;;;;21.65;35.48;102075.34;110232;1264;18788;-49
2022/03/15 02:45:26;;;;;;;;;26.67;25.67;;;;;21.64;35.38;102075.96;110130;1264;19131;-48
2022/03/15 02:47:54;;;;;;;;;29.67;26.00;;;;;21.65;35.29;102079.90;110264;1263;19423;-48
2022/03/15 02:50:21;;;;;;;;;25.67;24.00;;;;;21.65;35.28;102082.81;110279;1264;18820;-49
2022/03/15 02:52:48;;;;;;;;;32.67;27.00;;;;;21.64;35.37;102083.60;110244;1264;22501;-48
2022/03/15 02:55:18;;;;;;;;;28.33;24.67;;;;;21.64;35.55;102085.62;110254;1264;20033;-49
2022/03/15 02:57:45;;;;;;;;;25.00;21.00;;;;;21.65;35.38;102085.02;110274;1264;22827;-49
2022/03/15 03:00:13;;;;;;;;;28.33;25.00;;;;;21.65;35.35;102089.19;110235;1263;19001;-54
2022/03/15 03:02:40;;;;;;;;;24.67;21.00;;;;;21.66;35.35;102088.52;110282;1265;19471;-47
2022/03/15 03:05:07;;;;;;;;;26.67;24.00;;;;;21.66;35.48;102091.24;110248;1264;18796;-48
2022/03/15 03:07:35;;;;;;;;;25.00;22.00;;;;;21.66;35.38;102100.35;110280;1264;18893;-48
2022/03/15 03:10:02;;;;;;;;;29.00;27.00;;;;;21.67;35.46;102096.67;110245;1264;22598;-49
2022/03/15 03:12:31;;;;;;;;;24.00;22.00;;;;;21.66;35.54;102093.08;110272;1264;18739;-50
2022/03/15 03:15:00;;;;;;;;;26.00;24.00;;;;;21.65;35.47;102094.62;110155;1264;18729;-48
2022/03/15 03:17:28;;;;;;;;;23.67;22.67;;;;;21.66;35.35;102097.82;110254;1264;19466;-49
2022/03/15 03:19:56;;;;;;;;;30.00;26.50;;;;;21.65;35.48;102095.16;110279;1264;18758;-50
2022/03/15 03:22:23;;;;;;;;;26.33;25.00;;;;;21.65;35.44;102096.84;110258;1264;21965;-47
2022/03/15 03:24:50;;;;;;;;;26.00;25.00;;;;;21.65;35.31;102097.23;110280;1264;19690;-48
2022/03/15 03:27:17;;;;;;;;;31.67;25.67;;;;;21.65;35.40;102099.92;110307;1264;18774;-48
2022/03/15 03:29:45;;;;;;;;;24.50;24.00;;;;;21.65;35.32;102099.75;110252;1263;18857;-48
2022/03/15 03:32:13;;;;;;;;;24.00;22.00;;;;;21.66;35.27;102106.93;110286;1263;20900;-49
2022/03/15 03:34:40;;;;;;;;;25.50;24.50;;;;;21.65;35.54;102105.75;110160;1264;19197;-50
2022/03/15 03:37:07;;;;;;;;;28.50;26.00;;;;;21.65;35.27;102109.55;110196;1264;18910;-49
2022/03/15 03:39:35;;;;;;;;;24.33;24.00;;;;;21.66;35.42;102106.38;110216;1264;22797;-49
2022/03/15 03:42:03;;;;;;;;;32.33;26.33;;;;;21.65;35.23;102101.91;110280;1264;18733;-48
2022/03/15 03:44:30;;;;;;;;;30.50;25.50;;;;;21.64;35.29;102094.73;110275;1263;18843;-47
2022/03/15 03:46:57;;;;;;;;;28.00;25.00;;;;;21.64;35.23;102092.73;110267;1264;19572;-49
2022/03/15 03:49:24;;;;;;;;;28.67;28.00;;;;;21.64;35.30;102090.58;110279;1264;18885;-48
2022/03/15 03:51:52;;;;;;;;;26.33;24.33;;;;;21.64;35.32;102092.77;110275;1264;19125;-48
2022/03/15 03:54:19;;;;;;;;;28.50;24.50;;;;;21.64;35.42;102096.55;110334;1264;19671;-49
2022/03/15 03:56:46;;;;;;;;;23.67;22.00;;;;;21.63;35.47;102095.52;110247;1264;18705;-48
2022/03/15 03:59:13;;;;;;;;;27.33;25.00;;;;;21.63;35.35;102097.90;110265;1264;18943;-52
2022/03/15 04:01:41;;;;;;;;;25.00;25.00;;;;;21.64;35.23;102098.43;110257;1264;21917;-49
2022/03/15 04:04:09;;;;;;;;;25.00;24.00;;;;;21.63;35.37;102099.00;110267;1264;18756;-49
2022/03/15 04:06:38;;;;;;;;;24.33;22.00;;;;;21.63;35.33;102094.15;110280;1264;18866;-50
2022/03/15 04:09:05;;;;;;;;;25.00;24.00;;;;;21.63;35.33;102095.96;110277;1264;19665;-49
2022/03/15 04:11:32;;;;;;;;;26.00;25.00;;;;;21.62;35.17;102095.51;110259;1265;18882;-48
2022/03/15 04:14:00;;;;;;;;;28.67;25.33;;;;;21.60;35.41;102091.78;110278;1264;18971;-48
2022/03/15 04:16:27;;;;;;;;;27.00;24.67;;;;;21.61;35.40;102093.53;110284;1264;19476;-49
2022/03/15 04:18:55;;;;;;;;;26.50;24.50;;;;;21.61;35.49;102094.61;110288;1263;18821;-49
2022/03/15 04:21:24;;;;;;;;;28.00;24.50;;;;;21.62;35.37;102097.45;110233;1264;20269;-48
2022/03/15 04:23:52;;;;;;;;;28.00;24.67;;;;;21.61;35.39;102096.70;110285;1265;19508;-49
2022/03/15 04:26:19;;;;;;;;;29.00;26.67;;;;;21.62;35.37;102096.40;110102;1264;20166;-48
2022/03/15 04:28:46;;;;;;;;;26.67;25.00;;;;;21.62;35.29;102096.36;110131;1264;18883;-48
2022/03/15 04:31:13;;;;;;;;;27.00;25.00;;;;;21.62;35.22;102099.09;110167;1264;19583;-47
2022/03/15 04:33:41;;;;;;;;;27.00;25.00;;;;;21.61;35.45;102097.00;110279;1264;22377;-48
2022/03/15 04:36:08;;;;;;;;;28.00;25.33;;;;;21.62;35.43;102096.05;110298;1265;19141;-49
2022/03/15 04:38:35;;;;;;;;;27.00;25.33;;;;;21.60;35.32;102096.31;110284;1263;19457;-49
2022/03/15 04:41:03;;;;;;;;;27.67;25.33;;;;;21.62;35.46;102098.23;110243;1263;18699;-49
2022/03/15 04:43:30;;;;;;;;;27.00;25.00;;;;;21.60;35.32;102098.70;110257;1264;18814;-49
2022/03/15 04:45:58;;;;;;;;;29.00;28.33;;;;;21.62;35.26;102098.41;110255;1264;19564;-49
2022/03/15 04:48:25;;;;;;;;;26.00;25.67;;;;;21.62;35.36;102099.33;110296;1263;18908;-49
2022/03/15 04:50:52;;;;;;;;;32.33;28.00;;;;;21.61;35.34;102104.61;110253;1264;18860;-49
2022/03/15 04:53:20;;;;;;;;;25.00;23.50;;;;;21.63;35.43;102107.96;110185;1264;19538;-50
2022/03/15 04:55:48;;;;;;;;;30.33;28.00;;;;;21.62;35.29;102111.10;110144;1264;18988;-53
2022/03/15 04:58:15;;;;;;;;;25.50;24.00;;;;;21.61;35.34;102105.36;110158;1264;23382;-47
2022/03/15 05:00:43;;;;;;;;;23.67;22.33;;;;;21.62;35.25;102106.73;110195;1264;19497;-48
2022/03/15 05:03:10;;;;;;;;;28.00;24.33;;;;;21.61;35.34;102111.19;110274;1264;18885;-49
2022/03/15 05:05:37;;;;;;;;;28.50;25.00;;;;;21.62;35.28;102112.36;110250;1264;18994;-49
2022/03/15 05:08:05;;;;;;;;;24.33;24.33;;;;;21.63;35.43;102113.98;110220;1264;19552;-49
2022/03/15 05:13:18;;;;;;;;;29.00;24.50;;;;;21.62;35.23;102109.29;110246;1264;21218;-48
2022/03/15 05:15:46;;;;;;;;;28.00;24.00;;;;;21.63;35.14;102110.11;110280;1264;19529;-48
2022/03/15 05:18:13;;;;;;;;;32.00;27.50;;;;;21.61;35.30;102112.65;110318;1264;18749;-49
2022/03/15 05:20:40;;;;;;;;;28.33;26.00;;;;;21.61;35.31;102123.20;110197;1264;18829;-50
2022/03/15 05:23:07;;;;;;;;;29.33;27.67;;;;;21.61;35.42;102125.72;110222;1265;19720;-48
2022/03/15 05:25:35;;;;;;;;;26.00;25.00;;;;;21.61;35.49;102128.29;110114;1264;23647;-49
2022/03/15 05:28:02;;;;;;;;;31.33;28.67;;;;;21.63;35.39;102128.87;110235;1264;18994;-49
2022/03/15 05:30:29;;;;;;;;;26.00;25.00;;;;;21.63;35.15;102127.00;110327;1264;19542;-50
2022/03/15 05:32:56;;;;;;;;;26.33;24.33;;;;;21.64;35.21;102123.83;110258;1264;20091;-49
2022/03/15 05:35:23;;;;;;;;;23.67;23.33;;;;;21.64;35.50;102121.89;110246;1264;18915;-49
2022/03/15 05:37:51;;;;;;;;;26.00;26.00;;;;;21.64;35.30;102129.64;110260;1264;19780;-51
2022/03/15 05:40:18;;;;;;;;;32.00;28.67;;;;;21.65;35.31;102129.79;110249;1265;22554;-49
2022/03/15 05:42:45;;;;;;;;;33.50;26.50;;;;;21.63;35.43;102129.36;110218;1264;19322;-50
2022/03/15 05:45:13;;;;;;;;;30.50;25.00;;;;;21.63;35.44;102130.65;110227;1264;19526;-48
2022/03/15 05:47:40;;;;;;;;;28.33;25.00;;;;;21.63;35.48;102131.78;110155;1264;19028;-47
2022/03/15 05:50:07;;;;;;;;;34.33;27.67;;;;;21.63;35.27;102132.15;109993;1265;18968;-48
2022/03/15 05:52:34;;;;;;;;;26.33;25.00;;;;;21.65;35.34;102134.36;110155;1264;19615;-48
2022/03/15 05:55:02;;;;;;;;;29.67;25.00;;;;;21.64;35.35;102130.62;110288;1264;18703;-50
2022/03/15 05:57:29;;;;;;;;;29.00;28.00;;;;;21.63;35.45;102133.34;110303;1264;18979;-50
2022/03/15 05:59:56;;;;;;;;;26.00;25.00;;;;;21.65;35.56;102136.16;110256;1264;19643;-51
2022/03/15 06:02:24;;;;;;;;;28.00;27.67;;;;;21.65;35.43;102137.40;110269;1264;22245;-50
2022/03/15 06:04:51;;;;;;;;;25.00;24.00;;;;;21.66;35.48;102134.15;110159;1264;18929;-50
2022/03/15 06:07:18;;;;;;;;;25.67;25.33;;;;;21.71;36.08;102135.40;110344;1262;19824;-51
2022/03/15 06:09:46;;;;;;;;;26.33;24.00;;;;;21.74;36.03;102137.63;110225;1261;18957;-51
2022/03/15 06:12:13;;;;;;;;;28.67;26.00;;;;;21.77;36.04;102139.27;110181;1262;18867;-51
2022/03/15 06:14:40;;;;;;;;;29.33;26.33;;;;;21.75;36.63;102140.92;110175;1262;21238;-49
2022/03/15 06:17:07;;;;;;;;;26.33;24.67;;;;;21.74;36.89;102141.93;110220;1265;18779;-49
2022/03/15 06:19:34;;;;;;;;;26.00;24.00;;;;;21.80;36.87;102146.67;110231;1264;19013;-51
2022/03/15 06:22:02;;;;;;;;;30.00;25.50;;;;;21.85;37.83;102144.48;110197;1265;19642;-52
2022/03/15 06:24:29;;;;;;;;;30.00;27.33;;;;;21.89;38.20;102142.17;110273;1264;18816;-49
2022/03/15 06:26:57;;;;;;;;;30.00;27.67;;;;;21.90;37.87;102142.80;110242;1265;18939;-48
2022/03/15 06:29:24;;;;;;;;;30.33;25.00;;;;;21.93;38.25;102145.02;110207;1265;19333;-50
2022/03/15 06:31:52;;;;;;;;;25.00;22.00;;;;;21.95;38.47;102148.05;110247;1264;18731;-50
2022/03/15 06:34:19;;;;;;;;;33.00;26.00;;;;;22.01;38.87;102154.89;110259;1264;18853;-50
2022/03/15 06:36:46;;;;;;;;;27.00;24.33;;;;;22.07;39.12;102165.98;110185;1265;19773;-49
2022/03/15 06:39:13;;;;;;;;;30.00;25.00;;;;;22.08;39.18;102167.71;110269;1264;22832;-50
2022/03/15 06:41:43;;;;;;;;;27.33;25.33;;;;;22.09;39.43;102169.85;110222;1264;18869;-50
2022/03/15 06:44:10;;;;;;;;;25.00;23.00;;;;;22.09;39.85;102171.23;110153;1264;19658;-50
2022/03/15 06:46:38;;;;;;;;;24.33;24.33;;;;;22.07;39.85;102167.27;110237;1264;21679;-50
2022/03/15 06:49:05;;;;;;;;;26.50;25.00;;;;;22.05;39.86;102161.11;110073;1262;19120;-50
2022/03/15 06:51:32;;;;;;;;;30.67;27.00;;;;;22.02;39.79;102162.85;110107;1264;19567;-51
2022/03/15 06:53:59;;;;;;;;;27.00;26.00;;;;;21.99;39.16;102157.55;110259;1264;18730;-50
2022/03/15 06:56:27;;;;;;;;;31.00;25.00;;;;;21.95;39.28;102159.24;110223;1264;18827;-50
2022/03/15 06:58:54;;;;;;;;;27.00;24.50;;;;;21.94;39.55;102164.41;110215;1264;20339;-50
2022/03/15 07:01:21;;;;;;;;;26.00;22.00;;;;;21.95;39.49;102166.11;110175;1264;18716;-50
2022/03/15 07:03:49;;;;;;;;;29.00;26.00;;;;;21.99;39.37;102172.44;110212;1265;19062;-50
2022/03/15 07:06:16;;;;;;;;;25.33;24.33;;;;;22.02;39.20;102176.30;110207;1264;19546;-50
2022/03/15 07:08:44;;;;;;;;;38.00;34.00;;;;;22.03;39.07;102186.96;110179;1264;18741;-50
2022/03/15 07:11:11;;;;;;;;;34.33;32.33;;;;;21.88;38.30;102191.02;110148;1265;20488;-49
2022/03/15 07:13:38;;;;;;;;;35.33;31.00;;;;;21.77;38.42;102189.30;110039;1264;19488;-50
2022/03/15 07:16:06;;;;;;;;;34.67;32.00;;;;;21.76;38.72;102194.48;110187;1264;18797;-51
2022/03/15 07:18:33;;;;;;;;;38.00;33.67;;;;;21.75;38.20;102197.14;110097;1264;19316;-48
2022/03/15 07:21:01;;;;;;;;;52.33;43.33;;;;;21.70;37.83;102199.06;110083;1264;19765;-50
2022/03/15 07:23:28;;;;;;;;;67.00;49.50;;;;;21.55;37.51;102196.67;110201;1264;21215;-50
2022/03/15 07:25:55;;;;;;;;;38.50;37.00;;;;;21.50;36.89;102195.95;110237;1264;18816;-51
2022/03/15 07:28:22;;;;;;;;;49.50;42.50;;;;;21.56;37.55;102197.38;110264;1264;19527;-50
2022/03/15 07:30:49;;;;;;;;;46.67;39.00;;;;;21.69;37.62;102192.31;110216;1265;18700;-50
2022/03/15 07:33:17;;;;;;;;;40.67;39.00;;;;;21.86;37.23;102191.54;110268;1264;18917;-50
2022/03/15 07:35:44;;;;;;;;;40.00;36.00;;;;;21.88;37.25;102195.90;110206;1264;19595;-51
2022/03/15 07:38:13;;;;;;;;;44.00;37.67;;;;;21.82;37.32;102198.47;110171;1264;18773;-50
2022/03/15 07:40:41;;;;;;;;;41.33;35.33;;;;;21.79;37.61;102191.34;110184;1264;18908;-50
2022/03/15 07:43:09;;;;;;;;;36.50;33.50;;;;;21.82;37.49;102193.42;110044;1264;19448;-52
2022/03/15 07:45:36;;;;;;;;;38.00;33.33;;;;;21.83;37.81;102192.90;110217;1265;18968;-49
2022/03/15 07:48:04;;;;;;;;;38.50;36.50;;;;;21.82;37.94;102189.37;110184;1265;18789;-51
2022/03/15 07:50:31;;;;;;;;;37.33;31.33;;;;;21.81;38.29;102187.48;110237;1265;19684;-49
2022/03/15 07:52:59;;;;;;;;;32.67;30.67;;;;;21.80;38.54;102185.89;110211;1263;21836;-50
2022/03/15 07:55:26;;;;;;;;;35.67;30.00;;;;;21.78;38.71;102186.54;110199;1264;18924;-51
2022/03/15 07:57:53;;;;;;;;;33.00;30.50;;;;;21.73;38.89;102186.98;110265;1264;19637;-50
2022/03/15 08:00:20;;;;;;;;;32.00;30.00;;;;;21.69;38.51;102183.01;110282;1263;22785;-50
2022/03/15 08:02:47;;;;;;;;;31.67;29.67;;;;;21.65;38.43;102180.00;110245;1264;18790;-50
2022/03/15 08:05:15;;;;;;;;;35.50;32.50;;;;;21.63;38.19;102179.25;110216;1264;19447;-51
2022/03/15 08:07:42;;;;;;;;;32.00;29.67;;;;;21.60;37.90;102184.62;110186;1264;18687;-49
2022/03/15 08:10:10;;;;;;;;;39.67;36.33;;;;;21.57;38.00;102183.23;110128;1264;18693;-50
2022/03/15 08:12:37;;;;;;;;;30.67;29.00;;;;;21.56;38.08;102181.55;110155;1264;19454;-51
2022/03/15 08:15:05;;;;;;;;;33.00;30.00;;;;;21.57;38.03;102180.67;110164;1264;18758;-51
2022/03/15 08:17:32;;;;;;;;;33.33;29.00;;;;;21.66;38.06;102174.97;110210;1264;19510;-49
2022/03/15 08:20:00;;;;;;;;;34.33;32.33;;;;;21.73;38.43;102161.88;110244;1264;19594;-49
2022/03/15 08:22:28;;;;;;;;;34.00;33.00;;;;;21.76;38.38;102162.10;110244;1264;19002;-50
2022/03/15 08:24:56;;;;;;;;;33.00;29.50;;;;;21.73;38.47;102163.66;110252;1263;19013;-51
2022/03/15 08:27:23;;;;;;;;;29.33;25.67;;;;;21.74;38.18;102154.83;110235;1264;19474;-52
2022/03/15 08:29:50;;;;;;;;;31.33;29.67;;;;;21.80;38.74;102161.04;110176;1264;24010;-51
2022/03/15 08:32:17;;;;;;;;;35.33;32.00;;;;;21.84;39.59;102164.96;110054;1262;18879;-50
2022/03/15 08:34:45;;;;;;;;;35.50;30.50;;;;;21.88;41.12;102160.39;110138;1262;19491;-50
2022/03/15 08:37:12;;;;;;;;;34.67;30.00;;;;;21.90;41.48;102152.73;110183;1265;22817;-50
2022/03/15 08:39:40;;;;;;;;;32.50;31.50;;;;;21.90;41.29;102151.98;110204;1264;19151;-50
2022/03/15 08:42:07;;;;;;;;;29.00;25.67;;;;;21.92;41.38;102153.70;110133;1265;19548;-52
2022/03/15 08:44:36;;;;;;;;;30.00;27.33;;;;;21.93;41.01;102159.17;110160;1264;18771;-49
2022/03/15 08:47:03;;;;;;;;;30.00;26.67;;;;;21.93;41.04;102152.61;110225;1264;22639;-50
2022/03/15 08:49:30;;;;;;;;;32.00;27.33;;;;;21.94;40.75;102152.95;110188;1264;19510;-49
2022/03/15 08:51:57;;;;;;;;;30.00;27.00;;;;;21.95;40.87;102153.92;110186;1264;19019;-51
2022/03/15 08:54:28;;;;;;;;;29.33;26.33;;;;;21.96;40.91;102151.30;110277;1264;18955;-50
2022/03/15 08:56:55;;;;;;;;;26.00;23.67;;;;;21.94;40.93;102153.78;110159;1264;19719;-50
2022/03/15 08:59:25;;;;;;;;;29.33;27.67;;;;;21.95;40.29;102155.36;110171;1263;18730;-50
2022/03/15 09:01:52;;;;;;;;;25.67;23.67;;;;;21.94;39.89;102156.94;110181;1264;19012;-51
2022/03/15 09:04:20;;;;;;;;;25.33;22.33;;;;;21.96;39.67;102159.84;110127;1264;21241;-50
2022/03/15 09:06:48;;;;;;;;;29.00;25.33;;;;;21.98;39.81;102164.74;110205;1264;18654;-51
2022/03/15 09:09:18;;;;;;;;;26.50;26.00;;;;;22.00;39.32;102165.27;110215;1262;19215;-50
2022/03/15 09:11:46;;;;;;;;;29.00;23.00;;;;;22.03;39.61;102163.08;110191;1265;23131;-51
2022/03/15 09:14:14;;;;;;;;;26.33;22.33;;;;;22.06;39.77;102164.65;110164;1264;18741;-51
2022/03/15 09:16:41;;;;;;;;;23.50;21.50;;;;;22.09;39.90;102169.95;110151;1264;22844;-51
2022/03/15 09:19:09;;;;;;;;;26.00;25.67;;;;;22.10;39.83;102168.58;110176;1262;19458;-51
2022/03/15 09:21:36;;;;;;;;;25.00;22.00;;;;;22.13;39.47;102171.43;110226;1264;20729;-53
2022/03/15 09:24:03;;;;;;;;;23.00;22.67;;;;;22.16;39.54;102163.73;110197;1263;18788;-50
2022/03/15 09:26:31;;;;;;;;;26.67;24.67;;;;;22.16;39.18;102163.52;110246;1264;19579;-51
2022/03/15 09:28:58;;;;;;;;;24.00;23.00;;;;;22.13;39.15;102167.23;110217;1264;20099;-51
2022/03/15 09:31:25;;;;;;;;;26.50;25.50;;;;;22.15;39.01;102167.68;110062;1265;20385;-52
2022/03/15 09:33:52;;;;;;;;;31.67;26.33;;;;;22.12;39.22;102163.84;110259;1264;19489;-48
2022/03/15 09:36:19;;;;;;;;;33.00;26.00;;;;;22.12;39.20;102163.13;110238;1265;18707;-52
2022/03/15 09:38:47;;;;;;;;;38.00;28.00;;;;;22.13;39.12;102163.29;110235;1264;27827;-50
2022/03/15 09:41:14;;;;;;;;;38.00;30.33;;;;;22.11;39.45;102161.10;110217;1264;19541;-50
2022/03/15 09:43:42;;;;;;;;;28.00;26.33;;;;;22.12;39.77;102160.61;110246;1265;18667;-51
2022/03/15 09:46:09;;;;;;;;;31.50;26.50;;;;;22.14;39.98;102168.29;110236;1264;22312;-51
2022/03/15 09:48:36;;;;;;;;;26.00;25.00;;;;;22.15;40.18;102168.73;110232;1264;22944;-51
2022/03/15 09:51:04;;;;;;;;;26.00;23.00;;;;;22.14;40.55;102174.77;110182;1264;18857;-50
2022/03/15 09:53:32;;;;;;;;;34.00;23.00;;;;;22.14;40.77;102169.52;110193;1264;18882;-47
2022/03/15 09:55:59;;;;;;;;;26.67;26.00;;;;;22.15;40.99;102170.21;110220;1264;19599;-52
2022/03/15 09:58:26;;;;;;;;;25.00;22.00;;;;;22.16;40.81;102169.53;110199;1264;21496;-52
2022/03/15 10:00:53;;;;;;;;;24.67;22.33;;;;;22.16;40.98;102170.86;110156;1264;18887;-49
2022/03/15 10:03:21;;;;;;;;;26.67;24.00;;;;;22.16;40.90;102169.33;110264;1264;19588;-49
2022/03/15 10:05:49;;;;;;;;;25.00;23.00;;;;;22.13;40.82;102163.96;110243;1264;18690;-51
2022/03/15 10:08:17;;;;;;;;;25.00;23.00;;;;;22.12;40.90;102160.99;110209;1264;18782;-51
2022/03/15 10:10:44;;;;;;;;;22.00;21.00;;;;;22.11;40.77;102157.46;110241;1264;19466;-49
2022/03/15 10:13:11;;;;;;;;;27.00;25.50;;;;;22.08;40.77;102157.19;110189;1264;19070;-50
2022/03/15 10:15:38;;;;;;;;;29.50;26.50;;;;;22.03;40.35;102150.03;110213;1264;22832;-49
2022/03/15 10:18:06;;;;;;;;;22.00;22.00;;;;;21.97;40.11;102144.57;110169;1264;19751;-51
2022/03/15 10:20:34;;;;;;;;;23.67;23.67;;;;;21.99;40.42;102142.04;110183;1264;19078;-48
2022/03/15 10:23:01;;;;;;;;;28.33;25.67;;;;;22.01;40.42;102144.75;110168;1264;18911;-48
2022/03/15 10:25:29;;;;;;;;;28.00;24.50;;;;;22.05;40.53;102141.81;110166;1264;21056;-50
2022/03/15 10:27:56;;;;;;;;;28.67;26.33;;;;;22.04;40.41;102139.13;110230;1264;22659;-49
2022/03/15 10:30:23;;;;;;;;;23.00;19.00;;;;;22.04;40.53;102136.97;110243;1264;18986;-51
2022/03/15 10:32:51;;;;;;;;;21.67;21.00;;;;;21.99;40.53;102132.02;110231;1264;19728;-50
2022/03/15 10:35:18;;;;;;;;;25.33;21.33;;;;;21.99;40.47;102130.77;110182;1264;18712;-51
2022/03/15 10:37:45;;;;;;;;;25.00;23.00;;;;;21.98;40.49;102127.34;110045;1264;18770;-48
2022/03/15 10:40:12;;;;;;;;;22.00;21.00;;;;;21.99;40.63;102126.95;110173;1264;19558;-50
2022/03/15 10:42:41;;;;;;;;;24.00;21.67;;;;;21.99;40.61;102122.36;110169;1264;22585;-51
2022/03/15 10:45:08;;;;;;;;;23.00;21.00;;;;;22.03;40.41;102124.16;109946;1264;19006;-50
2022/03/15 10:47:36;;;;;;;;;26.00;19.67;;;;;22.03;40.64;102120.70;110060;1265;19534;-50
2022/03/15 10:50:04;;;;;;;;;23.33;21.67;;;;;22.09;40.60;102127.19;110164;1262;22816;-50
2022/03/15 10:52:31;;;;;;;;;24.67;20.67;;;;;22.06;40.89;102120.90;110187;1262;18862;-50
2022/03/15 10:54:59;;;;;;;;;20.00;18.67;;;;;22.10;40.90;102113.70;110179;1264;20078;-51
2022/03/15 10:57:26;;;;;;;;;22.00;20.50;;;;;22.10;41.24;102106.75;110184;1262;20454;-51
2022/03/15 10:59:54;;;;;;;;;21.00;19.00;;;;;22.08;40.90;102102.75;110183;1262;18839;-49
2022/03/15 11:02:21;;;;;;;;;21.33;21.00;;;;;22.12;40.67;102098.72;110034;1262;19480;-50
2022/03/15 11:04:48;;;;;;;;;21.67;20.67;;;;;22.15;40.97;102102.22;110112;1264;18796;-49